METAR v bližini

 

LIPQ - Ronchi Legionari, Italy
Oddaljenost od postaje: JZ 35km
Podatki zajeti: 01. 02. 2023 22:50
Meglice, Pretežno oblačno
Meglice, Pretežno oblačno
 Veter iz smeri SV
Veter: SV 4 km/h
Temperatura: 3°C
Temp. rosišča: 2°C
Vlažnost: 93%
Tlak: 1020 hPa
Stanje: Meglice
Oblačnost: Pretežno oblačno
Vidljivost: 1 km
Podrobnosti o oblakih: Pretežno oblačno 823 m
2023/02/01 21:50 LIPQ 012150Z AUTO 04002KT 1100 R09/P2000N BR BKN027/// 03/02 Q1020
LIVT - Trieste, Italy
Oddaljenost od postaje: J 49km
Podatki zajeti: 01. 02. 2023 22:55

 Veter iz smeri VSV
Veter: VSV 7 km/h
Temperatura: 7°C
Občutek mraza zaradi vetra: 6°C
Temp. rosišča: 4°C
Vlažnost: 81%
Tlak: 1020 hPa
2023/02/01 21:55 LIVT 012155Z AUTO 06004KT //// 07/04 Q1020
 
LIVO - Tarvisio, Italy
Oddaljenost od postaje: SSZ 49km
Podatki zajeti: 01. 02. 2023 18:55
Ni posodobljen
Rahlo oblačno
Rahlo oblačno
 Veter iz smeri calm
Veter: Tišina
Temperatura: 1°C
Temp. rosišča: -1°C
Vlažnost: 87%
Tlak: 1016 hPa
Oblačnost: Rahlo oblačno
Vidljivost: 10 km
Podrobnosti o oblakih: Rahlo oblačno 975 m
2023/02/01 17:55 LIVO 011755Z 00000KT 9999 FEW032 01/M01 Q1016
LIPI - Rivolto (it-Afb), Italy
Oddaljenost od postaje: ZJZ 57km
Podatki zajeti: 01. 02. 2023 22:55
Meglice, Delno oblačno
Meglice, Delno oblačno
 Veter iz smeri S
Veter: S 7 km/h
Temperatura: 0°C
Občutek mraza zaradi vetra: -3°C
Temp. rosišča: -1°C
Vlažnost: 93%
Tlak: 1020 hPa
Stanje: Meglice
Oblačnost: Delno oblačno
Vidljivost: 2 km
2023/02/01 21:55 LIPI 012155Z 36004KT 2000 BR NSC 00/M01 Q1020
 
LJLJ - Ljubljana/Brnik, Slovenia
Oddaljenost od postaje: VSV 59km
Podatki zajeti: 01. 02. 2023 23:00
Jasno
Jasno
 Veter iz smeri Z
Veter: Z 2 km/h
Temperatura: -4°C
Temp. rosišča: -4°C
Vlažnost: 100%
Tlak: 1019 hPa
Stanje: Jasno
Vidljivost: večja od 10 km
2023/02/01 22:00 LJLJ 012200Z 26001KT CAVOK M04/M04 Q1019 NOSIG
LJPZ - Portoroz, Slovenia
Oddaljenost od postaje: J 68km
Podatki zajeti: 01. 02. 2023 23:00
Meglice, Delno oblačno
Meglice, Delno oblačno
 Veter iz smeri JV
Veter: JV 13 km/h
Temperatura: 2°C
Občutek mraza zaradi vetra: -1°C
Temp. rosišča: 1°C
Vlažnost: 93%
Tlak: 1020 hPa
Stanje: Meglice
Oblačnost: Delno oblačno
Vidljivost: 2 km
Podrobnosti o oblakih: Delno oblačno 762 m
2023/02/01 22:00 LJPZ 012200Z AUTO 13007KT 1500 R15/P2000 BR SCT025/// 02/01 Q1020
 
LOWK - Klagenfurt(Civ/M, Austria
Oddaljenost od postaje: SV 78km
Podatki zajeti: 01. 02. 2023 22:50
Rahlo oblačno
Rahlo oblačno
 Veter iz smeri spremenljiv
Veter: spremenljiv 4 km/h
Temperatura: -3°C
Temp. rosišča: -4°C
Vlažnost: 93%
Tlak: 1019 hPa
Oblačnost: Rahlo oblačno
Vidljivost: 10 km
Podrobnosti o oblakih: Rahlo oblačno 3048 m
2023/02/01 21:50 LOWK 012150Z AUTO VRB02KT 9999 FEW100 M03/M04 Q1019 NOSIG
LIPA - Aviano (it/Us-Af, Italy
Oddaljenost od postaje: Z 89km
Podatki zajeti: 01. 02. 2023 21:55
Delno oblačno
Delno oblačno
 Veter iz smeri SSV
Veter: SSV 6 km/h
Temperatura: 2°C
Temp. rosišča: 1°C
Vlažnost: 93%
Tlak: 1019 hPa
Oblačnost: Delno oblačno
Vidljivost: 7 km
2023/02/01 20:55 LIPA 012055Z 03003KT 7000 NSC 02/01 Q1019
 
LDRI - Rijeka/Omisalj, Croatia
Oddaljenost od postaje: JV 115km
Podatki zajeti: 01. 02. 2023 23:00
Jasno
Jasno
 Veter iz smeri VJV
Veter: VJV 7 km/h
Temperatura: 5°C
Občutek mraza zaradi vetra: 3°C
Temp. rosišča: 3°C
Vlažnost: 87%
Tlak: 1020 hPa
Stanje: Jasno
Vidljivost: večja od 10 km
2023/02/01 22:00 LDRI 012200Z 12004KT CAVOK 05/03 Q1020
LIPZ - Venezia/Tessera, Italy
Oddaljenost od postaje: ZJZ 127km
Podatki zajeti: 01. 02. 2023 22:50
Meglice, Delno oblačno
Meglice, Delno oblačno
 Veter iz smeri S
Veter: S 6 km/h
Temperatura: 2°C
Temp. rosišča: 1°C
Vlažnost: 93%
Tlak: 1020 hPa
Stanje: Meglice
Oblačnost: Delno oblačno
Vidljivost: 4 km
2023/02/01 21:50 LIPZ 012150Z 35003KT 4000 BR NSC 02/01 Q1020 BECMG 2000 BR
 
LDPL - Pula, Croatia
Oddaljenost od postaje: J 133km
Podatki zajeti: 01. 02. 2023 23:00
Meglice, Delno oblačno
Meglice, Delno oblačno
 Veter iz smeri SV
Veter: SV 6 km/h
Temperatura: 1°C
Temp. rosišča: 0°C
Vlažnost: 93%
Tlak: 1020 hPa
Stanje: Meglice
Oblačnost: Delno oblačno
Vidljivost: 2 km
2023/02/01 22:00 LDPL 012200Z 05003KT 1700 BR NSC 01/00 Q1020
LIPS - Istrana (it-Afb), Italy
Oddaljenost od postaje: ZJZ 136km
Podatki zajeti: 01. 02. 2023 22:55
Meglice, Delno oblačno
Meglice, Delno oblačno
 Veter iz smeri spremenljiv
Veter: spremenljiv 0 km/h
Temperatura: -1°C
Temp. rosišča: -2°C
Vlažnost: 93%
Tlak: 1020 hPa
Stanje: Meglice
Oblačnost: Delno oblačno
Vidljivost: 3 km
2023/02/01 21:55 LIPS 012155Z /////KT 3000 BR NSC M01/M02 Q1020
 
LIVD - Dobbiaco, Italy
Oddaljenost od postaje: ZSZ 137km
Podatki zajeti: 01. 02. 2023 22:55

 Veter iz smeri Z
Veter: Z 7 km/h
Temperatura: 1°C
Občutek mraza zaradi vetra: -2°C
Temp. rosišča: -6°C
Vlažnost: 60%
Tlak: 1020 hPa
2023/02/01 21:55 LIVD 012155Z AUTO 28004KT 210V310 //// 01/M06 Q1020
LJCE - Cerklje, Slovenia
Oddaljenost od postaje: V 139km
Podatki zajeti: 01. 02. 2023 23:00
Jasno
Jasno
 Veter iz smeri calm
Veter: Tišina
Temperatura: 0°C
Temp. rosišča: -2°C
Vlažnost: 87%
Tlak: 1019 hPa
Oblačnost: Jasno
Vidljivost: 10 km
2023/02/01 22:00 LJCE 012200Z AUTO 00000KT 9999 NCD M00/M02 Q1019
 
LOXZ - Zeltweg (mil), Austria
Oddaljenost od postaje: SSV 147km
Podatki zajeti: 01. 02. 2023 21:50
Ni posodobljen
Rahlo dežuje, Sneg, Pretežno oblačno
Rahlo dežuje, Sneg, Pretežno oblačno
 Veter iz smeri ZSZ
Veter: ZSZ 7 km/h
Temperatura: 2°C
Občutek mraza zaradi vetra: 0°C
Temp. rosišča: -2°C
Vlažnost: 75%
Tlak: 1018 hPa
Stanje: Rahlo dežuje, Sneg
Oblačnost: Pretežno oblačno
Vidljivost: 10 km
Podrobnosti o oblakih: Rahlo oblačno 305 m
Pretežno oblačno 762 m
2023/02/01 20:50 LOXZ 012050Z 29004KT 250V310 9999 -RASN FEW010 BKN025 02/M02 Q1018
sucontract_SNC